createdAt,value
2018-11-26T00:00:37.869Z,15.30
2018-11-26T00:03:49.514Z,16.70
2018-11-26T00:07:00.973Z,13.93
2018-11-26T00:10:30.225Z,14.35
2018-11-26T00:13:41.424Z,16.82
2018-11-26T00:16:53.810Z,13.13
2018-11-26T00:20:06.235Z,14.43
2018-11-26T00:23:17.896Z,15.15
2018-11-26T00:26:29.307Z,15.23
2018-11-26T00:29:40.402Z,13.60
2018-11-26T00:32:51.729Z,15.60
2018-11-26T00:36:03.195Z,14.13
2018-11-26T00:39:14.871Z,15.20
2018-11-26T00:42:26.201Z,14.70
2018-11-26T00:45:38.030Z,14.30
2018-11-26T00:48:49.242Z,20.43
2018-11-26T00:52:00.482Z,24.43
2018-11-26T00:55:12.728Z,23.73
2018-11-26T00:58:24.546Z,24.80
2018-11-26T01:01:35.782Z,28.75
2018-11-26T01:04:47.226Z,23.20
2018-11-26T01:07:59.633Z,22.77
2018-11-26T01:11:10.819Z,25.30
2018-11-26T01:14:23.573Z,21.12
2018-11-26T01:17:35.169Z,23.55
2018-11-26T01:20:46.584Z,23.57
2018-11-26T01:23:57.527Z,26.77
2018-11-26T01:27:08.908Z,27.23
2018-11-26T01:30:20.008Z,24.87
2018-11-26T01:33:31.234Z,27.87
2018-11-26T01:36:42.454Z,25.00
2018-11-26T01:39:53.852Z,25.53
2018-11-26T01:43:05.376Z,25.90
2018-11-26T01:46:17.443Z,27.52
2018-11-26T01:49:28.477Z,24.53
2018-11-26T01:52:39.652Z,27.07
2018-11-26T01:55:51.145Z,24.85
2018-11-26T01:59:02.278Z,24.47
2018-11-26T02:02:13.562Z,24.50
2018-11-26T02:05:25.413Z,25.07
2018-11-26T02:08:37.571Z,22.40
2018-11-26T02:11:48.954Z,23.57
2018-11-26T02:15:00.791Z,24.03
2018-11-26T02:18:12.636Z,23.63
2018-11-26T02:21:24.908Z,24.95
2018-11-26T02:24:36.623Z,22.42
2018-11-26T02:27:48.181Z,22.65
2018-11-26T02:30:59.692Z,23.33
2018-11-26T02:34:11.623Z,23.38
2018-11-26T02:37:23.774Z,23.47
2018-11-26T02:40:35.251Z,24.85
2018-11-26T02:43:47.353Z,22.17
2018-11-26T02:46:58.684Z,22.82
2018-11-26T02:50:10.867Z,21.63
2018-11-26T02:53:22.982Z,25.60
2018-11-26T02:56:34.027Z,23.37
2018-11-26T02:59:45.203Z,27.33
2018-11-26T03:02:56.933Z,23.27
2018-11-26T03:06:08.819Z,22.42
2018-11-26T03:09:22.289Z,23.62
2018-11-26T03:12:33.854Z,24.43
2018-11-26T03:15:45.503Z,26.50
2018-11-26T03:18:56.566Z,23.55
2018-11-26T03:22:14.453Z,24.77
2018-11-26T03:25:25.932Z,24.07
2018-11-26T03:28:37.833Z,26.20
2018-11-26T03:31:48.979Z,24.03
2018-11-26T03:35:00.375Z,22.67
2018-11-26T03:38:15.153Z,22.17
2018-11-26T03:41:27.537Z,23.67
2018-11-26T03:44:38.801Z,21.17
2018-11-26T03:47:49.766Z,25.10
2018-11-26T03:51:00.700Z,23.27
2018-11-26T03:54:12.462Z,21.87
2018-11-26T03:57:24.029Z,23.10
2018-11-26T04:00:35.691Z,21.02
2018-11-26T04:03:47.393Z,23.50
2018-11-26T04:06:59.189Z,22.13
2018-11-26T04:10:12.542Z,23.27
2018-11-26T04:13:23.932Z,20.10
2018-11-26T04:16:36.698Z,23.18
2018-11-26T04:19:47.925Z,21.85
2018-11-26T04:23:00.367Z,24.63
2018-11-26T04:26:12.354Z,22.93
2018-11-26T04:29:23.692Z,22.53
2018-11-26T04:32:34.846Z,23.75
2018-11-26T04:35:46.850Z,20.40
2018-11-26T04:38:58.350Z,24.20
2018-11-26T04:42:09.824Z,24.20
2018-11-26T04:45:21.104Z,23.22
2018-11-26T04:48:32.004Z,23.33
2018-11-26T04:51:43.207Z,22.90
2018-11-26T04:54:54.290Z,22.97
2018-11-26T04:58:05.891Z,22.40
2018-11-26T05:01:17.715Z,25.53
2018-11-26T05:04:28.912Z,25.90
2018-11-26T05:07:40.551Z,26.23
2018-11-26T05:10:53.265Z,25.00
2018-11-26T05:14:04.439Z,24.95
2018-11-26T05:17:15.641Z,30.77
2018-11-26T05:20:27.189Z,24.23
2018-11-26T05:23:38.483Z,27.70
2018-11-26T05:26:50.404Z,29.87
2018-11-26T05:30:02.002Z,32.80
2018-11-26T05:33:12.992Z,34.10
2018-11-26T05:36:25.001Z,36.88
2018-11-26T05:39:36.599Z,34.20
2018-11-26T05:42:47.426Z,34.77
2018-11-26T05:45:58.902Z,33.58
2018-11-26T05:49:10.681Z,34.80
2018-11-26T05:52:22.129Z,35.53
2018-11-26T05:55:33.153Z,38.73
2018-11-26T05:58:44.078Z,35.33
2018-11-26T06:01:55.590Z,33.93
2018-11-26T06:05:07.507Z,37.73
2018-11-26T06:08:18.720Z,37.40
2018-11-26T06:11:29.786Z,33.60
2018-11-26T06:14:41.109Z,37.63
2018-11-26T06:17:53.594Z,35.97
2018-11-26T06:21:06.048Z,35.90
2018-11-26T06:24:17.445Z,40.20
2018-11-26T06:27:28.519Z,40.83
2018-11-26T06:30:39.981Z,41.50
2018-11-26T06:33:51.176Z,36.50
2018-11-26T06:37:02.754Z,41.42
2018-11-26T06:40:14.425Z,38.60
2018-11-26T06:43:25.694Z,45.17
2018-11-26T06:46:37.410Z,35.48
2018-11-26T06:50:08.561Z,37.40
2018-11-26T06:53:21.069Z,42.17
2018-11-26T06:56:32.575Z,38.78
2018-11-26T06:59:43.673Z,38.87
2018-11-26T07:02:55.468Z,36.43
2018-11-26T07:06:07.089Z,40.80
2018-11-26T07:09:18.711Z,33.50
2018-11-26T07:12:30.346Z,35.60
2018-11-26T07:15:42.462Z,37.20
2018-11-26T07:18:54.301Z,49.20
2018-11-26T07:22:07.013Z,37.23
2018-11-26T07:25:20.868Z,35.20
2018-11-26T07:28:32.560Z,34.73
2018-11-26T07:31:43.990Z,35.33
2018-11-26T07:34:55.760Z,31.68
2018-11-26T07:38:14.938Z,29.45
2018-11-26T07:41:26.791Z,29.07
2018-11-26T07:48:21.228Z,32.03
2018-11-26T07:51:32.570Z,34.10
2018-11-26T07:54:43.297Z,29.77
2018-11-26T07:57:55.116Z,30.80
2018-11-26T08:01:07.801Z,31.80
2018-11-26T08:04:19.425Z,30.17
2018-11-26T08:07:31.059Z,30.17
2018-11-26T08:10:42.691Z,25.37
2018-11-26T08:13:54.744Z,24.50
2018-11-26T08:17:06.311Z,24.20
2018-11-26T08:20:18.267Z,21.87
2018-11-26T08:23:29.733Z,21.37
2018-11-26T08:26:40.677Z,20.83
2018-11-26T08:29:52.056Z,19.23
2018-11-26T08:33:03.704Z,17.63
2018-11-26T08:36:15.855Z,17.62
2018-11-26T08:39:32.738Z,18.75
2018-11-26T08:42:49.355Z,14.15
2018-11-26T08:46:07.037Z,13.68
2018-11-26T08:49:22.833Z,14.40
2018-11-26T08:52:34.434Z,15.50
2018-11-26T08:55:45.435Z,15.30
2018-11-26T08:58:56.780Z,14.60
2018-11-26T09:02:09.949Z,17.07
2018-11-26T09:06:26.122Z,21.35
2018-11-26T09:09:37.381Z,19.20
2018-11-26T09:12:48.954Z,19.90
2018-11-26T09:16:02.095Z,22.70
2018-11-26T09:19:13.971Z,19.77
2018-11-26T09:22:25.422Z,20.17
2018-11-26T09:25:37.791Z,24.72
2018-11-26T09:28:49.641Z,22.22
2018-11-26T09:32:00.980Z,18.92
2018-11-26T09:35:17.126Z,19.90
2018-11-26T09:38:28.698Z,20.95
2018-11-26T09:41:41.261Z,20.65
2018-11-26T09:44:52.625Z,22.93
2018-11-26T09:48:04.155Z,20.80
2018-11-26T09:51:15.635Z,20.82
2018-11-26T09:54:27.986Z,21.93
2018-11-26T09:57:40.104Z,23.50
2018-11-26T10:00:50.953Z,25.77
2018-11-26T10:04:02.434Z,23.90
2018-11-26T10:07:13.672Z,22.75
2018-11-26T10:10:25.250Z,23.23
2018-11-26T10:13:38.128Z,20.82
2018-11-26T10:16:50.205Z,21.65
2018-11-26T10:20:01.976Z,24.70
2018-11-26T10:23:13.794Z,24.70
2018-11-26T10:26:26.109Z,25.17
2018-11-26T10:29:37.282Z,20.85
2018-11-26T10:32:50.887Z,24.33
2018-11-26T10:36:03.758Z,22.27
2018-11-26T10:39:15.129Z,22.65
2018-11-26T10:42:27.179Z,25.55
2018-11-26T10:45:38.760Z,23.40
2018-11-26T10:48:50.425Z,22.60
2018-11-26T10:52:01.294Z,25.80
2018-11-26T10:55:14.829Z,26.97
2018-11-26T10:58:25.999Z,25.12
2018-11-26T11:01:38.074Z,26.57
2018-11-26T11:04:49.224Z,26.93
2018-11-26T11:08:00.640Z,24.73
2018-11-26T11:11:13.378Z,24.32
2018-11-26T11:14:25.872Z,26.20
2018-11-26T11:17:38.630Z,24.67
2018-11-26T11:20:50.891Z,24.20
2018-11-26T11:24:09.479Z,26.70
2018-11-26T11:27:28.600Z,23.65
2018-11-26T11:30:40.095Z,26.77
2018-11-26T11:33:51.227Z,25.90
2018-11-26T11:37:02.082Z,26.27
2018-11-26T11:40:19.584Z,27.47
2018-11-26T11:43:30.929Z,26.40
2018-11-26T11:46:42.593Z,23.15
2018-11-26T11:49:54.767Z,27.35
2018-11-26T11:53:06.781Z,25.37
2018-11-26T11:56:18.823Z,24.70
2018-11-26T11:59:29.993Z,25.90
2018-11-26T12:02:42.608Z,22.20
2018-11-26T12:05:54.479Z,23.98
2018-11-26T12:09:09.176Z,24.53
2018-11-26T12:12:20.814Z,26.20
2018-11-26T12:15:32.349Z,24.00
2018-11-26T12:18:43.549Z,26.33
2018-11-26T12:21:54.998Z,20.93
2018-11-26T12:25:08.939Z,19.05
2018-11-26T12:28:19.943Z,16.47
2018-11-26T12:31:31.522Z,20.10
2018-11-26T12:34:42.705Z,23.70
2018-11-26T12:37:54.756Z,18.27
2018-11-26T12:41:07.742Z,18.02
2018-11-26T12:44:20.898Z,19.42
2018-11-26T12:47:32.171Z,21.87
2018-11-26T12:50:43.676Z,19.63
2018-11-26T12:53:55.958Z,18.87
2018-11-26T12:57:08.319Z,17.30
2018-11-26T13:00:22.896Z,21.30
2018-11-26T13:03:35.585Z,18.03
2018-11-26T13:06:48.066Z,20.00
2018-11-26T13:09:59.935Z,23.53
2018-11-26T13:13:12.055Z,21.20
2018-11-26T13:16:25.351Z,20.25
2018-11-26T13:19:37.910Z,20.70
2018-11-26T13:22:49.434Z,21.17
2018-11-26T13:26:00.787Z,22.50
2018-11-26T13:29:13.346Z,19.77
2018-11-26T13:32:24.959Z,21.43
2018-11-26T13:35:36.102Z,22.10
2018-11-26T13:38:47.726Z,18.80
2018-11-26T13:41:59.255Z,19.53
2018-11-26T13:45:13.689Z,24.07
2018-11-26T13:48:25.711Z,23.50
2018-11-26T13:51:36.668Z,22.63
2018-11-26T13:54:47.805Z,21.20
2018-11-26T13:58:00.151Z,21.67
2018-11-26T14:01:12.766Z,21.60
2018-11-26T14:04:25.339Z,22.10
2018-11-26T14:07:36.375Z,20.85
2018-11-26T14:10:48.258Z,18.70
2018-11-26T14:14:00.205Z,18.48
2018-11-26T14:17:12.678Z,23.77
2018-11-26T14:20:24.821Z,22.07
2018-11-26T14:23:37.759Z,22.22
2018-11-26T14:26:49.982Z,23.73
2018-11-26T14:30:02.598Z,22.52
2018-11-26T14:33:14.784Z,22.52
2018-11-26T14:36:27.562Z,23.00
2018-11-26T14:39:39.207Z,21.12
2018-11-26T14:42:50.653Z,22.15
2018-11-26T14:46:01.630Z,23.43
2018-11-26T14:49:13.651Z,22.73
2018-11-26T14:52:25.574Z,24.45
2018-11-26T14:55:39.014Z,23.25
2018-11-26T14:58:50.465Z,18.65
2018-11-26T15:02:01.761Z,25.27
2018-11-26T15:05:14.394Z,20.28
2018-11-26T15:08:25.861Z,22.30
2018-11-26T15:11:38.177Z,23.47
2018-11-26T15:14:49.695Z,24.35
2018-11-26T15:18:01.592Z,21.85
2018-11-26T15:21:13.701Z,24.02
2018-11-26T15:24:25.471Z,23.25
2018-11-26T15:27:36.512Z,24.60
2018-11-26T15:30:47.945Z,23.97
2018-11-26T15:34:01.830Z,26.67
2018-11-26T15:37:16.423Z,20.67
2018-11-26T15:40:29.174Z,26.40
2018-11-26T15:43:41.951Z,26.73
2018-11-26T15:46:57.254Z,27.35
2018-11-26T15:50:09.213Z,27.53
2018-11-26T15:53:21.229Z,28.50
2018-11-26T15:56:32.103Z,24.50
2018-11-26T15:59:44.168Z,27.93
2018-11-26T16:02:56.120Z,26.40
2018-11-26T16:06:08.144Z,29.52
2018-11-26T16:09:19.516Z,26.80
2018-11-26T16:12:30.836Z,23.70
2018-11-26T16:15:45.139Z,31.00
2018-11-26T16:18:56.915Z,31.10
2018-11-26T16:22:08.905Z,28.90
2018-11-26T16:25:23.073Z,29.27
2018-11-26T16:28:34.838Z,27.60
2018-11-26T16:31:45.841Z,31.20
2018-11-26T16:34:57.011Z,30.53
2018-11-26T16:38:09.711Z,34.23
2018-11-26T16:41:20.857Z,31.40
2018-11-26T16:44:32.569Z,33.35
2018-11-26T16:47:45.386Z,37.20
2018-11-26T16:50:56.372Z,38.28
2018-11-26T16:54:07.806Z,30.62
2018-11-26T16:57:19.873Z,29.92
2018-11-26T17:00:31.943Z,33.53
2018-11-26T17:03:43.660Z,30.00
2018-11-26T17:06:55.584Z,29.65
2018-11-26T17:10:08.327Z,27.27
2018-11-26T17:13:19.472Z,25.60
2018-11-26T17:16:30.897Z,25.20
2018-11-26T17:19:45.779Z,24.10
2018-11-26T17:22:56.150Z,24.85
2018-11-26T17:26:07.966Z,23.45
2018-11-26T17:29:18.859Z,23.37
2018-11-26T17:32:30.208Z,19.70
2018-11-26T17:35:43.595Z,22.47
2018-11-26T17:38:55.091Z,21.57
2018-11-26T17:42:13.883Z,22.13
2018-11-26T17:45:27.183Z,22.55
2018-11-26T17:48:38.611Z,21.97
2018-11-26T17:51:50.305Z,22.85
2018-11-26T17:55:01.846Z,24.80
2018-11-26T17:58:13.392Z,25.20
2018-11-26T18:01:43.526Z,22.27
2018-11-26T18:04:55.105Z,23.67
2018-11-26T18:08:11.133Z,28.30
2018-11-26T18:11:22.809Z,24.20
2018-11-26T18:14:35.069Z,22.70
2018-11-26T18:17:47.612Z,27.50
2018-11-26T18:20:59.467Z,21.90
2018-11-26T18:24:12.323Z,24.80
2018-11-26T18:27:23.685Z,25.62
2018-11-26T18:30:42.071Z,23.60
2018-11-26T18:33:53.191Z,26.07
2018-11-26T18:37:04.555Z,25.10
2018-11-26T18:40:17.716Z,24.73
2018-11-26T18:43:29.066Z,24.40
2018-11-26T18:46:40.689Z,22.20
2018-11-26T18:49:52.401Z,24.87
2018-11-26T18:53:05.347Z,26.20
2018-11-26T18:56:17.027Z,25.50
2018-11-26T18:59:29.029Z,21.80
2018-11-26T19:02:41.776Z,25.77
2018-11-26T19:05:54.494Z,24.55
2018-11-26T19:09:07.755Z,20.23
2018-11-26T19:12:20.011Z,23.98
2018-11-26T19:15:35.363Z,24.50
2018-11-26T19:18:47.159Z,24.80
2018-11-26T19:22:02.197Z,24.40
2018-11-26T19:25:17.412Z,25.43
2018-11-26T19:28:29.806Z,25.72
2018-11-26T19:31:41.792Z,24.35
2018-11-26T19:34:53.751Z,26.97
2018-11-26T19:38:07.948Z,24.13
2018-11-26T19:41:20.365Z,26.70
2018-11-26T19:44:32.254Z,22.25
2018-11-26T19:47:43.666Z,22.67
2018-11-26T19:50:55.194Z,25.07
2018-11-26T19:54:07.123Z,22.93
2018-11-26T19:57:18.909Z,26.77
2018-11-26T20:00:31.482Z,25.00
2018-11-26T20:03:48.253Z,24.57
2018-11-26T20:07:00.231Z,25.43
2018-11-26T20:10:11.387Z,25.97
2018-11-26T20:13:22.941Z,25.75
2018-11-26T20:16:42.107Z,26.87
2018-11-26T20:19:53.401Z,26.87
2018-11-26T20:23:05.467Z,26.42
2018-11-26T20:26:17.167Z,25.08
2018-11-26T20:29:28.691Z,23.00
2018-11-26T20:32:41.320Z,21.75
2018-11-26T20:35:52.719Z,25.08
2018-11-26T20:39:03.822Z,25.03
2018-11-26T20:42:15.073Z,26.65
2018-11-26T20:45:25.899Z,26.07
2018-11-26T20:48:37.395Z,25.33
2018-11-26T20:51:49.894Z,24.02
2018-11-26T20:55:01.972Z,22.17
2018-11-26T20:58:13.893Z,22.50
2018-11-26T21:01:25.954Z,21.30
2018-11-26T21:04:37.365Z,20.30
2018-11-26T21:07:48.391Z,21.10
2018-11-26T21:11:30.880Z,22.00
2018-11-26T21:14:42.859Z,23.55
2018-11-26T21:17:56.202Z,22.02
2018-11-26T21:21:08.759Z,23.92
2018-11-26T21:24:19.949Z,22.15
2018-11-26T21:27:31.347Z,23.30
2018-11-26T21:30:44.050Z,25.10
2018-11-26T21:33:56.334Z,24.30
2018-11-26T21:37:08.551Z,23.17
2018-11-26T21:40:24.586Z,26.40
2018-11-26T21:43:36.098Z,25.08
2018-11-26T21:46:52.880Z,26.73
2018-11-26T21:49:58.834Z,26.50
2018-11-26T21:53:10.527Z,24.32
2018-11-26T21:56:22.878Z,24.85
2018-11-26T21:59:34.741Z,25.35
2018-11-26T22:02:47.241Z,27.80
2018-11-26T22:05:59.391Z,27.00
2018-11-26T22:09:11.002Z,25.90
2018-11-26T22:12:22.722Z,27.00
2018-11-26T22:15:34.850Z,27.47
2018-11-26T22:18:46.429Z,23.65
2018-11-26T22:21:57.829Z,27.17
2018-11-26T22:25:11.050Z,26.77
2018-11-26T22:28:22.928Z,23.20
2018-11-26T22:31:34.555Z,23.70
2018-11-26T22:34:46.220Z,22.10
2018-11-26T22:37:58.101Z,24.05
2018-11-26T22:41:09.170Z,23.43
2018-11-26T22:44:20.478Z,23.05
2018-11-26T22:47:32.877Z,24.72
2018-11-26T22:50:47.876Z,20.77
2018-11-26T22:53:59.505Z,26.55
2018-11-26T22:57:10.640Z,25.37
2018-11-26T23:00:30.099Z,22.95
2018-11-26T23:03:42.843Z,21.73
2018-11-26T23:06:53.777Z,23.80
2018-11-26T23:10:06.923Z,23.33
2018-11-26T23:13:18.064Z,26.37
2018-11-26T23:16:29.819Z,27.13
2018-11-26T23:19:42.271Z,24.47
2018-11-26T23:22:54.115Z,27.13
2018-11-26T23:26:05.520Z,25.33
2018-11-26T23:29:17.091Z,25.20
2018-11-26T23:32:29.030Z,24.70
2018-11-26T23:35:40.527Z,24.40
2018-11-26T23:38:52.781Z,23.77
2018-11-26T23:42:04.531Z,25.80
2018-11-26T23:45:18.242Z,28.95
2018-11-26T23:48:30.134Z,26.37
2018-11-26T23:51:42.514Z,26.15
2018-11-26T23:54:54.580Z,24.67
2018-11-26T23:58:06.313Z,25.25
